Time;durP1;ratioP1;P1;durP2;ratioP2;P2;SDS_P1;SDS_P2;PMS_P1;PMS_P2;Temp;Humidity;BMP_temperature;BMP_pressure;BME280_temperature;BME280_humidity;BME280_pressure;Samples;Min_cycle;Max_cycle;Signal;HPM_P1;HPM_P2
2023/01/12 04:44:24;;;;;;;12.43;11.03;;;12.50;99.90;;;;;;4592253;19;20067;-30
2023/01/12 04:45:56;;;;;;;12.90;11.50;;;12.50;99.90;;;;;;4590689;19;20405;-32
2023/01/12 04:47:27;;;;;;;14.63;10.63;;;12.50;99.90;;;;;;4588953;19;20018;-30
2023/01/12 04:48:59;;;;;;;13.37;11.20;;;12.60;99.90;;;;;;4587144;19;20440;-28
2023/01/12 04:50:30;;;;;;;14.80;10.85;;;12.70;99.90;;;;;;4588349;19;20492;-33
2023/01/12 04:52:03;;;;;;;13.80;10.47;;;12.70;99.90;;;;;;4588646;19;20011;-34
2023/01/12 04:53:34;;;;;;;12.80;10.97;;;12.80;99.90;;;;;;4587828;19;20029;-30
2023/01/12 04:55:06;;;;;;;13.13;11.45;;;12.80;99.90;;;;;;4589384;19;20082;-37
2023/01/12 04:56:37;;;;;;;12.50;11.20;;;12.90;99.90;;;;;;4589243;19;20023;-28
2023/01/12 04:58:09;;;;;;;13.10;11.10;;;12.90;99.90;;;;;;4589332;19;20031;-29
2023/01/12 04:59:40;;;;;;;11.68;10.20;;;12.90;99.90;;;;;;4590094;19;20022;-29
2023/01/12 05:01:17;;;;;;;12.75;11.00;;;12.90;99.90;;;;;;4588964;19;20031;-32
2023/01/12 05:02:49;;;;;;;11.73;10.47;;;13.00;99.90;;;;;;4590334;19;20021;-29
2023/01/12 05:04:20;;;;;;;14.57;11.63;;;13.00;99.90;;;;;;4590698;19;20050;-30
2023/01/12 05:05:54;;;;;;;13.10;10.13;;;12.90;99.90;;;;;;4590418;19;20015;-31
2023/01/12 05:07:30;;;;;;;11.93;10.63;;;12.90;99.90;;;;;;4590026;19;20018;-30
2023/01/12 05:10:53;;;;;;;11.70;9.90;;;12.90;99.90;;;;;;4588774;19;20487;-29
2023/01/12 05:12:24;;;;;;;13.00;10.73;;;12.90;99.90;;;;;;4589297;19;20022;-29
2023/01/12 05:13:56;;;;;;;11.90;10.25;;;12.90;99.90;;;;;;4589905;19;20006;-34
2023/01/12 05:15:28;;;;;;;11.73;10.40;;;12.90;99.90;;;;;;4590000;19;20006;-32
2023/01/12 05:17:00;;;;;;;11.50;10.30;;;12.90;99.90;;;;;;4589108;19;20006;-31
2023/01/12 05:18:31;;;;;;;13.87;11.27;;;12.90;99.90;;;;;;4588846;19;20011;-32
2023/01/12 05:20:03;;;;;;;14.48;10.15;;;12.90;99.90;;;;;;4587991;19;20352;-29
2023/01/12 05:21:34;;;;;;;12.43;10.20;;;12.90;99.90;;;;;;4589295;19;20472;-33
2023/01/12 05:23:05;;;;;;;12.68;10.55;;;12.90;99.90;;;;;;4588738;19;20015;-32
2023/01/12 05:24:36;;;;;;;13.23;10.13;;;13.00;99.90;;;;;;4587746;19;20014;-30
2023/01/12 05:26:08;;;;;;;12.23;10.00;;;13.00;99.90;;;;;;4588819;19;20365;-30
2023/01/12 05:27:39;;;;;;;12.38;10.90;;;12.90;99.90;;;;;;4590408;19;20007;-28
2023/01/12 05:29:11;;;;;;;13.40;10.83;;;12.90;99.90;;;;;;4590512;19;20011;-32
2023/01/12 05:30:44;;;;;;;14.43;10.90;;;12.90;99.90;;;;;;4588778;19;20014;-31
2023/01/12 05:32:15;;;;;;;11.02;9.57;;;12.90;99.90;;;;;;4589822;19;20035;-32
2023/01/12 05:33:47;;;;;;;14.63;10.77;;;13.00;99.90;;;;;;4588851;19;20091;-32
2023/01/12 05:35:19;;;;;;;;;;;12.90;99.90;;;;;;4589338;19;20419;-33
2023/01/12 05:36:50;;;;;;;10.87;9.13;;;12.90;99.90;;;;;;4587329;19;19923;-33
2023/01/12 05:38:22;;;;;;;;;;;13.00;99.90;;;;;;4588274;19;20484;-29
2023/01/12 05:39:53;;;;;;;13.23;9.75;;;12.90;99.90;;;;;;4587788;19;19950;-28
2023/01/12 05:41:24;;;;;;;14.55;10.18;;;13.00;99.90;;;;;;4589857;19;20014;-32
2023/01/12 05:46:32;;;;;;;13.43;9.40;;;12.90;99.90;;;;;;4589800;19;20333;-35
2023/01/12 05:48:03;;;;;;;12.57;9.33;;;12.90;99.90;;;;;;4590350;19;20484;-32
2023/01/12 05:49:34;;;;;;;10.40;8.35;;;12.90;99.90;;;;;;4589014;19;20086;-38
2023/01/12 05:51:06;;;;;;;10.50;8.70;;;12.90;99.90;;;;;;4588852;19;20006;-39
2023/01/12 05:52:38;;;;;;;11.73;8.63;;;12.90;99.90;;;;;;4587751;19;20559;-30
2023/01/12 05:54:09;;;;;;;13.20;9.35;;;12.90;99.90;;;;;;4588563;19;20010;-30
2023/01/12 05:55:41;;;;;;;11.17;9.10;;;12.90;99.90;;;;;;4587375;19;20467;-31
2023/01/12 05:57:13;;;;;;;10.70;8.05;;;12.80;99.90;;;;;;4587861;19;20364;-39
2023/01/12 05:58:54;;;;;;;10.32;8.73;;;12.90;99.90;;;;;;4587857;19;20039;-32
2023/01/12 06:00:25;;;;;;;12.45;9.65;;;12.80;99.90;;;;;;4586703;19;20486;-31
2023/01/12 06:01:57;;;;;;;11.00;9.90;;;12.80;99.90;;;;;;4587592;19;20014;-30
2023/01/12 06:03:28;;;;;;;11.77;9.77;;;12.80;99.90;;;;;;4590564;19;20037;-30
2023/01/12 06:05:00;;;;;;;11.90;9.43;;;12.80;99.90;;;;;;4588044;19;20074;-30
2023/01/12 06:06:31;;;;;;;;;;;12.80;99.90;;;;;;4589981;19;20011;-30
2023/01/12 06:08:03;;;;;;;12.13;10.10;;;12.80;99.90;;;;;;4589473;19;19918;-29
2023/01/12 06:09:34;;;;;;;10.48;9.10;;;12.80;99.90;;;;;;4588907;19;20011;-30
2023/01/12 06:13:55;;;;;;;12.83;9.20;;;12.80;99.90;;;;;;4587222;19;20502;-30
2023/01/12 06:14:47;;;;;;;13.20;9.73;;;12.80;99.90;;;;;;4589246;19;20010;-35
2023/01/12 06:16:19;;;;;;;11.45;8.88;;;12.80;99.90;;;;;;4588723;19;20025;-29
2023/01/12 06:17:50;;;;;;;11.13;9.75;;;12.80;99.90;;;;;;4587399;19;20041;-31
2023/01/12 06:19:22;;;;;;;10.77;9.60;;;12.80;99.90;;;;;;4587438;19;20030;-34
2023/01/12 06:20:53;;;;;;;11.75;9.88;;;12.80;99.90;;;;;;4586263;19;20021;-34
2023/01/12 06:22:26;;;;;;;;;;;12.80;99.90;;;;;;4589500;19;20021;-34
2023/01/12 06:23:57;;;;;;;10.98;9.52;;;12.80;99.90;;;;;;4588757;19;19966;-32
2023/01/12 06:25:28;;;;;;;12.85;10.63;;;12.90;99.90;;;;;;4587708;19;20019;-27
2023/01/12 06:27:01;;;;;;;11.00;9.97;;;13.00;99.90;;;;;;4588393;19;20018;-29
2023/01/12 06:28:34;;;;;;;11.68;9.65;;;13.00;99.90;;;;;;4588071;19;20006;-35
2023/01/12 06:30:07;;;;;;;10.83;9.60;;;13.00;99.90;;;;;;4587877;19;20050;-36
2023/01/12 06:31:38;;;;;;;11.27;9.47;;;13.10;99.90;;;;;;4587278;19;20021;-29
2023/01/12 06:33:10;;;;;;;11.73;9.63;;;13.10;99.90;;;;;;4590263;19;20046;-33
2023/01/12 06:34:43;;;;;;;14.80;9.40;;;13.10;99.90;;;;;;4591021;19;20032;-32
2023/01/12 06:36:14;;;;;;;11.15;9.27;;;13.20;99.90;;;;;;4593796;19;20378;-34
2023/01/12 06:37:45;;;;;;;11.00;9.30;;;13.10;99.90;;;;;;4592568;19;20024;-30
2023/01/12 06:39:17;;;;;;;13.65;9.48;;;13.10;99.90;;;;;;4593206;19;20021;-30
2023/01/12 06:40:49;;;;;;;14.40;9.80;;;13.10;99.90;;;;;;4593226;19;20026;-31
2023/01/12 06:42:30;;;;;;;15.02;10.75;;;13.10;99.90;;;;;;4591199;19;20014;-29
2023/01/12 06:44:02;;;;;;;18.08;12.35;;;13.10;99.90;;;;;;4589762;19;20018;-36
2023/01/12 06:45:33;;;;;;;16.48;13.00;;;13.10;99.90;;;;;;4591299;19;20017;-36
2023/01/12 07:38:10;;;;;;;13.53;11.20;;;13.00;99.90;;;;;;4592909;19;20002;-30
2023/01/12 07:39:47;;;;;;;15.25;10.32;;;12.90;99.90;;;;;;4592055;19;20077;-32
2023/01/12 07:43:16;;;;;;;15.23;10.70;;;12.90;99.90;;;;;;4590571;19;20041;-33
2023/01/12 07:44:50;;;;;;;13.87;10.30;;;12.80;99.90;;;;;;4590262;19;20018;-32
2023/01/12 07:46:24;;;;;;;12.03;9.37;;;12.80;99.90;;;;;;4590808;19;20097;-30
2023/01/12 07:47:56;;;;;;;15.47;10.70;;;12.80;99.90;;;;;;4591207;19;20006;-29
2023/01/12 07:49:32;;;;;;;12.07;9.53;;;12.80;99.90;;;;;;4591983;19;20333;-36
2023/01/12 07:51:04;;;;;;;14.17;9.47;;;12.80;99.90;;;;;;4590593;19;20344;-29
2023/01/12 07:55:17;;;;;;;14.47;9.77;;;12.80;99.90;;;;;;4590710;19;20018;-34
2023/01/12 07:56:49;;;;;;;12.73;9.47;;;12.80;99.90;;;;;;4589217;19;20036;-29
2023/01/12 07:58:20;;;;;;;13.13;9.00;;;12.70;99.90;;;;;;4591431;19;20176;-30
2023/01/12 07:59:52;;;;;;;12.93;9.20;;;12.80;99.90;;;;;;4591797;19;20472;-30
2023/01/12 08:01:25;;;;;;;11.47;8.13;;;12.70;99.90;;;;;;4592094;19;20013;-30
2023/01/12 08:03:03;;;;;;;13.23;8.55;;;12.70;99.90;;;;;;4591279;19;20006;-32
2023/01/12 08:04:35;;;;;;;15.70;9.40;;;12.70;99.90;;;;;;4590981;19;20026;-34
2023/01/12 08:06:06;;;;;;;9.77;8.30;;;12.70;99.90;;;;;;4591007;19;20003;-32
2023/01/12 08:07:39;;;;;;;12.50;8.93;;;12.70;99.90;;;;;;4590567;19;20063;-32
2023/01/12 08:09:11;;;;;;;12.60;9.15;;;12.70;99.90;;;;;;4591396;19;20332;-37
2023/01/12 08:10:46;;;;;;;11.97;8.93;;;12.70;99.90;;;;;;4591349;19;20397;-30
2023/01/12 08:12:19;;;;;;;12.97;8.93;;;12.60;99.90;;;;;;4591101;19;20007;-33
2023/01/12 08:13:54;;;;;;;;;;;12.70;99.90;;;;;;4592289;19;20017;-29
2023/01/12 08:15:27;;;;;;;14.67;9.57;;;12.70;99.90;;;;;;4590363;19;19914;-30
2023/01/12 08:17:02;;;;;;;14.07;9.20;;;12.70;99.90;;;;;;4589895;19;20022;-29
2023/01/12 08:18:53;;;;;;;;;;;12.70;99.90;;;;;;4591487;19;20055;-30
2023/01/12 08:20:28;;;;;;;14.00;8.10;;;12.70;99.90;;;;;;4590959;19;19911;-32
2023/01/12 08:21:59;;;;;;;14.07;8.60;;;12.70;99.90;;;;;;4591239;19;20078;-30
2023/01/12 08:23:34;;;;;;;14.97;8.47;;;12.70;99.90;;;;;;4591287;19;20017;-29
2023/01/12 08:25:09;;;;;;;13.57;8.67;;;12.70;99.90;;;;;;4591130;19;20018;-38
2023/01/12 08:26:43;;;;;;;15.33;8.20;;;12.70;99.90;;;;;;4590545;19;20020;-31
2023/01/12 08:28:17;;;;;;;13.00;8.53;;;12.70;99.90;;;;;;4590915;19;20018;-30
2023/01/12 08:29:52;;;;;;;12.97;7.93;;;12.70;99.90;;;;;;4588882;19;20026;-30
2023/01/12 08:31:30;;;;;;;13.03;7.80;;;12.60;99.90;;;;;;4592651;19;20010;-35
2023/01/12 08:33:04;;;;;;;13.00;7.77;;;12.70;99.90;;;;;;4592289;19;20015;-31
2023/01/12 08:34:35;;;;;;;12.73;8.10;;;12.70;99.90;;;;;;4590169;19;20010;-32
2023/01/12 08:36:08;;;;;;;16.73;8.70;;;12.70;99.90;;;;;;4589767;19;20010;-33
2023/01/12 08:37:39;;;;;;;15.77;7.90;;;12.60;99.90;;;;;;4589982;19;20447;-31
2023/01/12 08:39:12;;;;;;;13.07;7.73;;;12.60;99.90;;;;;;4590204;19;20014;-30
2023/01/12 08:42:36;;;;;;;16.07;9.30;;;12.70;99.90;;;;;;4589941;19;20007;-31
2023/01/12 08:44:09;;;;;;;14.23;7.88;;;12.70;99.90;;;;;;4590945;19;20014;-33
2023/01/12 08:45:42;;;;;;;14.27;8.67;;;12.80;99.90;;;;;;4589064;19;20006;-32
2023/01/12 08:47:15;;;;;;;16.13;9.15;;;12.70;99.90;;;;;;4590782;19;20087;-31
2023/01/12 08:48:47;;;;;;;12.50;7.20;;;12.80;99.90;;;;;;4590824;19;20512;-33
2023/01/12 08:50:18;;;;;;;14.45;7.88;;;12.70;99.90;;;;;;4590339;19;20006;-32
2023/01/12 08:51:49;;;;;;;12.07;7.10;;;12.80;99.90;;;;;;4589771;19;20019;-34
2023/01/12 08:53:21;;;;;;;11.88;7.72;;;12.80;99.90;;;;;;4589530;19;20476;-30
2023/01/12 08:54:52;;;;;;;10.00;6.30;;;12.80;99.90;;;;;;4591254;19;20018;-31
2023/01/12 08:56:24;;;;;;;11.93;7.20;;;12.80;99.90;;;;;;4591598;19;20018;-34
2023/01/12 08:57:56;;;;;;;12.67;6.63;;;12.80;99.90;;;;;;4589254;19;20039;-30
2023/01/12 08:59:27;;;;;;;10.20;6.93;;;12.70;99.90;;;;;;4590002;19;20010;-30
2023/01/12 09:01:10;;;;;;;10.70;7.82;;;12.80;99.90;;;;;;4590655;19;20059;-33
2023/01/12 09:02:41;;;;;;;11.10;7.73;;;12.80;99.90;;;;;;4590243;19;20007;-30
2023/01/12 09:04:12;;;;;;;13.85;7.45;;;12.80;99.90;;;;;;4589527;19;20513;-33
2023/01/12 09:05:44;;;;;;;;;;;12.70;99.90;;;;;;4589539;19;20015;-33
2023/01/12 09:07:18;;;;;;;12.43;7.13;;;12.80;99.90;;;;;;4588744;19;19915;-29
2023/01/12 09:08:54;;;;;;;13.90;7.70;;;12.80;99.90;;;;;;4589821;19;20472;-34
2023/01/12 09:10:26;;;;;;;13.83;6.67;;;12.80;99.90;;;;;;4588892;19;20010;-34
2023/01/12 09:11:57;;;;;;;11.30;6.85;;;12.70;99.90;;;;;;4589733;19;20483;-32
2023/01/12 09:13:29;;;;;;;13.85;7.28;;;12.70;99.90;;;;;;4590137;19;20006;-30
2023/01/12 09:15:00;;;;;;;;;;;12.70;99.90;;;;;;4589816;19;20018;-32
2023/01/12 09:16:33;;;;;;;11.93;7.20;;;12.70;99.90;;;;;;4589523;19;19919;-30
2023/01/12 09:18:04;;;;;;;12.10;6.30;;;12.70;99.90;;;;;;4590502;19;20344;-34
2023/01/12 09:19:37;;;;;;;13.90;7.30;;;12.70;99.90;;;;;;4589208;19;20015;-32
2023/01/12 09:21:11;;;;;;;13.77;7.20;;;12.70;99.90;;;;;;4590262;19;20015;-33
2023/01/12 09:22:43;;;;;;;13.07;7.20;;;12.70;99.90;;;;;;4590009;19;20010;-30
2023/01/12 09:24:15;;;;;;;10.80;6.63;;;12.70;99.90;;;;;;4588762;19;20019;-36
2023/01/12 09:25:47;;;;;;;14.77;7.90;;;12.70;99.90;;;;;;4587847;19;20330;-31
2023/01/12 09:27:19;;;;;;;13.50;6.83;;;12.70;99.90;;;;;;4589712;19;20010;-34
2023/01/12 09:28:51;;;;;;;10.63;7.40;;;12.70;99.90;;;;;;4589297;19;20484;-29
2023/01/12 09:30:22;;;;;;;13.35;7.20;;;12.70;99.90;;;;;;4588318;19;20017;-33
2023/01/12 09:31:54;;;;;;;11.13;6.68;;;12.70;99.90;;;;;;4589611;19;20034;-30
2023/01/12 09:33:25;;;;;;;14.88;7.20;;;12.60;99.90;;;;;;4589624;19;20034;-30
2023/01/12 09:35:01;;;;;;;12.87;6.97;;;12.60;99.90;;;;;;4588904;19;20334;-30
2023/01/12 09:36:35;;;;;;;13.93;8.80;;;12.60;99.90;;;;;;4589766;19;20047;-31
2023/01/12 09:38:07;;;;;;;12.03;6.93;;;12.60;99.90;;;;;;4590110;19;20070;-29
2023/01/12 09:39:40;;;;;;;11.70;6.63;;;12.70;99.90;;;;;;4589648;19;20021;-28
2023/01/12 09:47:24;;;;;;;10.77;7.20;;;12.80;99.90;;;;;;4588734;19;20011;-27
2023/01/12 09:48:57;;;;;;;16.70;9.63;;;12.90;99.90;;;;;;4589754;19;20002;-32
2023/01/12 09:50:33;;;;;;;12.23;7.80;;;13.00;99.90;;;;;;4589428;19;20017;-28
2023/01/12 09:52:12;;;;;;;12.73;6.83;;;13.00;99.90;;;;;;4589427;19;20038;-31
2023/01/12 09:53:48;;;;;;;11.73;7.37;;;13.10;99.90;;;;;;4589472;19;20019;-29
2023/01/12 09:55:43;;;;;;;13.97;6.37;;;13.10;99.90;;;;;;4588960;19;20406;-32
2023/01/12 09:57:42;;;;;;;11.73;6.70;;;13.10;99.90;;;;;;4587985;19;20070;-29
2023/01/12 09:59:16;;;;;;;12.67;6.37;;;13.20;99.90;;;;;;4589612;19;20074;-31
2023/01/12 10:00:51;;;;;;;11.60;6.60;;;13.20;99.90;;;;;;4589469;19;20070;-29
2023/01/12 10:02:24;;;;;;;9.30;6.13;;;13.20;99.90;;;;;;4588252;19;20091;-29
2023/01/12 10:03:58;;;;;;;13.00;6.53;;;13.20;99.90;;;;;;4588713;19;20048;-31
2023/01/12 10:05:37;;;;;;;11.47;6.57;;;13.20;99.90;;;;;;4587157;19;20066;-29
2023/01/12 10:07:13;;;;;;;12.30;6.63;;;13.20;99.90;;;;;;4590305;19;20018;-33
2023/01/12 10:08:53;;;;;;;9.57;5.57;;;13.20;99.90;;;;;;4593601;19;20415;-32
2023/01/12 10:10:24;;;;;;;13.83;6.97;;;13.20;99.90;;;;;;4594230;19;20472;-30
2023/01/12 10:12:07;;;;;;;13.18;7.65;;;13.20;99.90;;;;;;4592987;19;20018;-35
2023/01/12 10:14:03;;;;;;;13.10;6.80;;;13.20;99.90;;;;;;4593744;19;20019;-29
2023/01/12 10:15:55;;;;;;;13.30;6.43;;;13.10;99.90;;;;;;4593631;19;20551;-37
2023/01/12 10:17:31;;;;;;;11.33;6.83;;;13.00;99.90;;;;;;4592654;19;20031;-30
2023/01/12 10:19:18;;;;;;;11.80;6.10;;;13.00;99.90;;;;;;4592765;19;20040;-29
2023/01/12 10:20:49;;;;;;;16.40;6.70;;;13.00;99.90;;;;;;4592771;19;20015;-31
2023/01/12 10:22:35;;;;;;;12.05;5.95;;;13.00;99.90;;;;;;4592494;19;20377;-32
2023/01/12 10:24:12;;;;;;;11.77;6.80;;;13.00;99.90;;;;;;4594095;19;20477;-35
2023/01/12 10:25:48;;;;;;;10.97;6.50;;;13.00;99.90;;;;;;4592599;19;20014;-30
2023/01/12 10:27:19;;;;;;;15.03;7.80;;;13.00;99.90;;;;;;4592020;19;20014;-36
2023/01/12 10:28:52;;;;;;;16.25;8.48;;;13.00;99.90;;;;;;4592587;19;20095;-36
2023/01/12 10:30:33;;;;;;;13.30;7.60;;;12.90;99.90;;;;;;4592728;19;20034;-32
2023/01/12 10:32:04;;;;;;;12.80;7.60;;;12.90;99.90;;;;;;4592461;19;20019;-34
2023/01/12 10:33:35;;;;;;;;;;;12.90;99.90;;;;;;4594076;19;20420;-30
2023/01/12 10:35:15;;;;;;;10.88;6.22;;;12.90;99.90;;;;;;4593673;19;19910;-30
2023/01/12 10:36:48;;;;;;;11.70;6.97;;;12.90;99.90;;;;;;4593626;19;20491;-35
2023/01/12 10:38:35;;;;;;;12.33;6.77;;;12.80;99.90;;;;;;4592765;19;20318;-30
2023/01/12 10:40:31;;;;;;;11.83;7.30;;;12.80;99.90;;;;;;4591753;19;20039;-29
2023/01/12 10:44:15;;;;;;;9.67;5.53;;;12.80;99.90;;;;;;4592976;19;20018;-31
2023/01/12 10:46:16;;;;;;;11.83;5.97;;;12.70;99.90;;;;;;4590739;19;20082;-30
2023/01/12 10:47:49;;;;;;;10.30;5.63;;;12.70;99.90;;;;;;4590647;19;20015;-31
2023/01/12 10:49:22;;;;;;;11.33;6.63;;;12.80;99.90;;;;;;4590526;19;20099;-30
2023/01/12 10:51:01;;;;;;;12.63;5.90;;;12.80;99.90;;;;;;4592039;19;20003;-34
2023/01/12 10:52:35;;;;;;;10.00;5.83;;;12.90;99.90;;;;;;4590535;19;20014;-30
2023/01/12 10:54:16;;;;;;;11.47;5.77;;;12.90;99.90;;;;;;4590743;19;20468;-32
2023/01/12 10:55:47;;;;;;;11.23;5.77;;;12.90;99.90;;;;;;4591377;19;20050;-30
2023/01/12 10:57:21;;;;;;;9.10;5.20;;;12.90;99.90;;;;;;4591241;19;20493;-32
2023/01/12 10:59:02;;;;;;;8.97;5.30;;;12.90;99.90;;;;;;4590387;19;20014;-32
2023/01/12 11:00:33;;;;;;;11.13;6.03;;;12.90;99.90;;;;;;4590693;19;20069;-30
2023/01/12 11:02:10;;;;;;;12.90;7.73;;;12.90;99.90;;;;;;4590442;19;20014;-29
2023/01/12 11:03:42;;;;;;;16.57;9.50;;;12.80;99.90;;;;;;4590504;19;20030;-30
2023/01/12 11:05:29;;;;;;;17.40;8.77;;;12.90;99.90;;;;;;4589646;19;20542;-28
2023/01/12 11:07:11;;;;;;;12.60;7.03;;;12.90;99.90;;;;;;4590579;19;20021;-30
2023/01/12 11:08:42;;;;;;;13.80;6.40;;;12.90;99.90;;;;;;4590225;19;20011;-29
2023/01/12 11:10:30;;;;;;;12.02;5.65;;;12.90;99.90;;;;;;4590929;19;20504;-29
2023/01/12 11:12:22;;;;;;;12.20;6.30;;;12.90;99.90;;;;;;4590256;19;20010;-34
2023/01/12 11:13:57;;;;;;;10.20;4.95;;;12.80;99.90;;;;;;4590566;19;20634;-30
2023/01/12 11:15:31;;;;;;;10.30;5.53;;;12.80;99.90;;;;;;4590128;19;20423;-36
2023/01/12 11:17:20;;;;;;;10.67;5.37;;;12.80;99.90;;;;;;4590306;19;20035;-30
2023/01/12 11:19:36;;;;;;;9.53;5.33;;;12.80;99.90;;;;;;4589552;19;20014;-31
2023/01/12 11:21:11;;;;;;;9.80;5.33;;;12.80;99.90;;;;;;4589840;19;20017;-33
2023/01/12 11:22:43;;;;;;;9.97;5.30;;;12.80;99.90;;;;;;4590854;19;20029;-34
2023/01/12 11:24:32;;;;;;;10.20;5.15;;;12.80;99.90;;;;;;4590526;19;20037;-31
2023/01/12 11:26:07;;;;;;;8.70;5.10;;;12.80;99.90;;;;;;4592183;19;20010;-30
2023/01/12 11:27:46;;;;;;;10.47;4.80;;;12.80;99.90;;;;;;4591064;19;20007;-38
2023/01/12 11:29:40;;;;;;;9.63;4.90;;;12.80;99.90;;;;;;4592292;19;20018;-29
2023/01/12 11:31:26;;;;;;;7.80;5.03;;;12.80;99.90;;;;;;4591413;19;20017;-31
2023/01/12 11:32:58;;;;;;;8.67;4.80;;;12.70;99.90;;;;;;4591643;19;20078;-30
2023/01/12 11:34:35;;;;;;;11.05;6.10;;;12.70;99.90;;;;;;4592084;19;20003;-37
2023/01/12 11:36:10;;;;;;;8.67;4.53;;;12.70;99.90;;;;;;4591794;19;20022;-30
2023/01/12 11:37:42;;;;;;;8.27;5.10;;;12.80;99.90;;;;;;4591705;19;20018;-31
2023/01/12 11:39:23;;;;;;;9.88;5.28;;;12.80;99.90;;;;;;4590697;19;20059;-35
2023/01/12 11:40:55;;;;;;;8.98;5.30;;;12.80;99.90;;;;;;4590186;19;20018;-30
2023/01/12 11:44:26;;;;;;;10.30;5.17;;;12.70;99.90;;;;;;4589741;19;20480;-35
2023/01/12 11:46:02;;;;;;;9.97;5.30;;;12.70;99.90;;;;;;4588170;19;20048;-33
2023/01/12 11:47:35;;;;;;;7.97;5.00;;;12.70;99.90;;;;;;4589985;19;20011;-32
2023/01/12 11:49:45;;;;;;;7.73;4.80;;;12.70;99.90;;;;;;4590260;19;20024;-33
2023/01/12 11:51:21;;;;;;;9.80;5.70;;;12.70;99.90;;;;;;4589847;19;20018;-32
2023/01/12 11:52:54;;;;;;;11.27;6.03;;;12.70;99.90;;;;;;4589219;19;20015;-30
2023/01/12 11:54:26;;;;;;;10.30;5.43;;;12.70;99.90;;;;;;4589436;19;20081;-31
2023/01/12 11:56:09;;;;;;;8.90;5.27;;;12.80;99.90;;;;;;4590243;19;20025;-31
2023/01/12 11:58:10;;;;;;;9.53;4.70;;;12.70;99.90;;;;;;4589728;19;20014;-30
2023/01/12 12:00:01;;;;;;;7.80;4.67;;;12.70;99.90;;;;;;4589197;19;20066;-38
2023/01/12 12:01:33;;;;;;;;;;;12.70;99.90;;;;;;4590356;19;20018;-35
2023/01/12 12:03:41;;;;;;;9.60;4.57;;;12.70;99.90;;;;;;4589034;19;19922;-30
2023/01/12 12:05:38;;;;;;;9.20;4.63;;;12.60;99.90;;;;;;4588584;19;20425;-30
2023/01/12 12:07:23;;;;;;;8.17;4.83;;;12.60;99.90;;;;;;4589216;19;20351;-32
2023/01/12 12:09:31;;;;;;;14.03;6.07;;;12.70;99.90;;;;;;4588936;19;20018;-32
2023/01/12 12:11:08;;;;;;;10.13;5.60;;;12.70;99.90;;;;;;4589161;19;20485;-38
2023/01/12 12:12:51;;;;;;;9.57;4.83;;;12.70;99.90;;;;;;4589465;19;20002;-29
2023/01/12 12:14:35;;;;;;;11.00;5.67;;;12.70;99.90;;;;;;4589849;19;20002;-30
2023/01/12 12:16:41;;;;;;;10.13;4.83;;;12.70;99.90;;;;;;4589533;19;20040;-31
2023/01/12 12:18:48;;;;;;;7.00;5.00;;;12.60;99.90;;;;;;4588898;19;20018;-32
2023/01/12 12:20:28;;;;;;;10.70;4.37;;;12.60;99.90;;;;;;4589440;19;20010;-30
2023/01/12 12:22:03;;;;;;;8.00;4.60;;;12.60;99.90;;;;;;4588814;19;20018;-30
2023/01/12 12:23:53;;;;;;;7.97;4.87;;;12.70;99.90;;;;;;4588652;19;20402;-30
2023/01/12 12:25:30;;;;;;;10.90;5.13;;;12.70;99.90;;;;;;4588023;19;20011;-30
2023/01/12 12:27:03;;;;;;;11.37;5.10;;;12.70;99.90;;;;;;4588876;19;20015;-30
2023/01/12 12:28:44;;;;;;;10.57;5.18;;;12.70;99.90;;;;;;4588538;19;20025;-31
2023/01/12 12:30:27;;;;;;;9.57;5.13;;;12.70;99.90;;;;;;4586862;19;20011;-29
2023/01/12 12:32:24;;;;;;;10.63;5.07;;;12.70;99.90;;;;;;4588810;19;20044;-30
2023/01/12 12:34:14;;;;;;;12.63;6.10;;;12.70;99.90;;;;;;4588930;19;20022;-30
2023/01/12 12:36:23;;;;;;;12.07;5.80;;;12.70;99.90;;;;;;4588539;19;20036;-30
2023/01/12 12:38:22;;;;;;;9.77;5.77;;;12.70;99.90;;;;;;4588795;19;20012;-35
2023/01/12 12:40:03;;;;;;;10.30;5.20;;;12.70;99.90;;;;;;4588405;19;20362;-29
2023/01/12 12:45:55;;;;;;;9.03;4.70;;;12.70;99.90;;;;;;4587845;19;20532;-30
2023/01/12 12:47:59;;;;;;;9.20;5.03;;;12.70;99.90;;;;;;4588613;19;20015;-31
2023/01/12 12:49:31;;;;;;;9.87;4.33;;;12.70;99.90;;;;;;4588188;19;20091;-30
2023/01/12 12:51:05;;;;;;;10.73;4.47;;;12.60;99.90;;;;;;4587795;19;20548;-30
2023/01/12 12:52:37;;;;;;;10.50;5.10;;;12.60;99.90;;;;;;4588654;19;20021;-30
2023/01/12 12:54:15;;;;;;;8.80;4.73;;;12.60;99.90;;;;;;4588469;19;20040;-31
2023/01/12 12:55:48;;;;;;;10.90;5.10;;;12.70;99.90;;;;;;4588089;19;20015;-32
2023/01/12 12:57:20;;;;;;;8.83;4.77;;;12.70;99.90;;;;;;4587794;19;20010;-30
2023/01/12 12:58:55;;;;;;;12.82;5.28;;;12.60;99.90;;;;;;4587998;19;20018;-31
2023/01/12 13:00:39;;;;;;;9.83;4.60;;;12.70;99.90;;;;;;4589020;19;20023;-36
2023/01/12 13:02:33;;;;;;;11.57;4.40;;;12.70;99.90;;;;;;4588086;19;20019;-33
2023/01/12 13:04:06;;;;;;;9.80;4.97;;;12.70;99.90;;;;;;4587987;19;20023;-34
2023/01/12 13:05:38;;;;;;;10.27;5.03;;;12.60;99.90;;;;;;4587161;19;20451;-29
2023/01/12 13:07:13;;;;;;;9.97;4.67;;;12.60;99.90;;;;;;4588047;19;20496;-38
2023/01/12 13:08:45;;;;;;;7.87;4.43;;;12.60;99.90;;;;;;4588133;19;20345;-32
2023/01/12 13:10:25;;;;;;;9.93;4.90;;;12.60;99.90;;;;;;4588294;19;20354;-35
2023/01/12 13:11:59;;;;;;;9.27;5.50;;;12.70;99.90;;;;;;4587793;19;20519;-30
2023/01/12 13:13:32;;;;;;;13.97;8.07;;;12.70;99.90;;;;;;4587417;19;20405;-30
2023/01/12 13:15:21;;;;;;;37.70;20.57;;;12.70;99.90;;;;;;4588172;19;20022;-30
2023/01/12 13:16:54;;;;;;;35.90;21.47;;;12.70;99.90;;;;;;4587796;19;20018;-37
2023/01/12 13:18:49;;;;;;;31.67;20.07;;;12.70;99.90;;;;;;4587376;19;20080;-31
2023/01/12 13:20:49;;;;;;;30.37;19.67;;;12.70;99.90;;;;;;4587700;19;20022;-30
2023/01/12 13:22:32;;;;;;;47.87;32.03;;;12.70;99.90;;;;;;4588115;19;20010;-30
2023/01/12 13:24:09;;;;;;;60.70;34.73;;;12.70;99.90;;;;;;4587527;19;20018;-32
2023/01/12 13:25:51;;;;;;;50.93;28.47;;;12.60;99.90;;;;;;4586575;19;20019;-32
2023/01/12 13:27:41;;;;;;;;;;;12.60;99.90;;;;;;4588837;19;20025;-33
2023/01/12 13:29:27;;;;;;;33.60;19.80;;;12.60;99.90;;;;;;4587723;19;19949;-29
2023/01/12 13:31:01;;;;;;;64.13;37.13;;;12.60;99.90;;;;;;4587374;19;20022;-37
2023/01/12 13:32:35;;;;;;;62.80;38.07;;;12.60;99.90;;;;;;4587733;19;20023;-32
2023/01/12 13:34:28;;;;;;;42.90;26.17;;;12.60;99.90;;;;;;4587265;19;20086;-29
2023/01/12 13:36:02;;;;;;;25.50;15.03;;;12.60;99.90;;;;;;4587321;19;20089;-30
2023/01/12 13:37:43;;;;;;;18.63;12.13;;;12.60;99.90;;;;;;4587601;19;20540;-31
2023/01/12 13:39:15;;;;;;;27.92;15.50;;;12.50;99.90;;;;;;4587124;19;20014;-34
2023/01/12 13:40:47;;;;;;;;;;;12.60;99.90;;;;;;4589298;19;20022;-30
2023/01/12 13:44:39;;;;;;;14.57;9.00;;;12.60;99.90;;;;;;4592217;19;20010;-30
2023/01/12 13:46:15;;;;;;;14.60;10.38;;;12.70;99.90;;;;;;4592363;19;20484;-29
2023/01/12 13:47:47;;;;;;;9.83;5.80;;;12.60;99.90;;;;;;4592349;19;20532;-30
2023/01/12 13:49:24;;;;;;;11.53;6.50;;;12.70;99.90;;;;;;4591932;19;20025;-31
2023/01/12 13:51:01;;;;;;;9.20;5.90;;;12.60;99.90;;;;;;4592049;19;20535;-29
2023/01/12 13:52:34;;;;;;;10.20;5.80;;;12.30;99.90;;;;;;4592129;19;20019;-32
2023/01/12 13:54:11;;;;;;;11.53;6.20;;;11.40;99.90;;;;;;4592897;19;20416;-30
2023/01/12 13:55:57;;;;;;;10.40;6.17;;;11.00;99.90;;;;;;4591682;19;20440;-30
2023/01/12 13:57:29;;;;;;;11.80;5.80;;;10.80;99.90;;;;;;4592084;19;20444;-30
2023/01/12 13:59:03;;;;;;;9.57;5.70;;;10.80;99.90;;;;;;4592321;19;20467;-30
2023/01/12 14:00:36;;;;;;;9.03;5.67;;;10.70;99.90;;;;;;4591899;19;20887;-29
2023/01/12 14:02:16;;;;;;;9.87;5.30;;;10.70;99.90;;;;;;4591782;19;20441;-32
2023/01/12 14:03:51;;;;;;;11.40;6.43;;;10.70;99.90;;;;;;4591496;19;20538;-32
2023/01/12 14:05:28;;;;;;;11.50;6.63;;;10.70;99.90;;;;;;4591544;19;21075;-28
2023/01/12 14:07:10;;;;;;;10.27;6.03;;;10.70;99.90;;;;;;4593557;19;20389;-29
2023/01/12 14:08:57;;;;;;;9.73;6.10;;;10.70;99.90;;;;;;4592853;19;20429;-30
2023/01/12 14:10:35;;;;;;;12.97;6.40;;;10.70;99.90;;;;;;4591818;19;20445;-29
2023/01/12 14:12:19;;;;;;;8.30;5.17;;;10.70;99.90;;;;;;4592200;19;20462;-29
2023/01/12 14:18:15;;;;;;;13.47;7.93;;;10.70;99.90;;;;;;4592599;19;20469;-31
2023/01/12 14:19:50;;;;;;;10.23;6.27;;;10.70;99.90;;;;;;4592803;19;20484;-33
2023/01/12 14:21:25;;;;;;;10.17;6.23;;;10.70;99.90;;;;;;4593805;19;20480;-31
2023/01/12 14:23:16;;;;;;;9.73;5.93;;;10.70;99.90;;;;;;4593722;19;20436;-31
2023/01/12 14:24:47;;;;;;;9.90;6.30;;;10.70;99.90;;;;;;4593601;19;20562;-30
2023/01/12 14:26:22;;;;;;;10.13;6.30;;;10.60;99.90;;;;;;4594139;19;20809;-29
2023/01/12 14:27:56;;;;;;;12.30;6.83;;;10.60;99.90;;;;;;4594019;19;20425;-30
2023/01/12 14:29:31;;;;;;;11.37;6.30;;;10.60;99.90;;;;;;4592519;19;20475;-29